Natural Bridges, Utah
Current Conditions -  °F | °C
As of 3:15 AM on Thursday 29 Jan 2015 (Local Time) from KBDG Reporting Station
Clear Clear  
Wind Chill: 38°   Ceiling: Unl
Heat Index: 38°   Visibility: 10mi
Dew Point: 31°   Wind: 0mph
Humidity: 77%   Direction: NA
Pressure: 30.37"   Gusts: NA
Location:  37.6208°N, 109.479°W
Report Text: KBDG 291015Z AUTO 00000KT 10SM CLR 03/00 A3037 RMK AO1 T00321004
Loading
Personal Weather Stations






























Interactive Weather Map New forecast layout! Learn more

10-Day Weather Forecast

Advertisements
Track Severe Weather on mobile